createdAt,value
2018-09-22T04:00:33.746Z,93.30
2018-09-22T04:01:33.721Z,93.40
2018-09-22T04:02:33.737Z,93.30
2018-09-22T04:03:33.714Z,92.57
2018-09-22T04:04:33.694Z,93.09
2018-09-22T04:05:33.702Z,92.88
2018-09-22T04:06:33.660Z,92.93
2018-09-22T04:07:33.668Z,93.40
2018-09-22T04:08:33.621Z,93.30
2018-09-22T04:09:33.610Z,93.75
2018-09-22T04:10:33.631Z,94.02
2018-09-22T04:11:33.616Z,93.96
2018-09-22T04:12:33.612Z,93.81
2018-09-22T04:13:33.569Z,93.24
2018-09-22T04:14:33.561Z,93.09
2018-09-22T04:15:33.557Z,93.40
2018-09-22T04:16:33.538Z,92.78
2018-09-22T04:17:33.543Z,93.24
2018-09-22T04:18:33.510Z,92.72
2018-09-22T04:19:33.544Z,93.24
2018-09-22T04:20:33.493Z,93.24
2018-09-22T04:21:33.477Z,93.30
2018-09-22T04:22:33.498Z,92.93
2018-09-22T04:23:33.503Z,93.91
2018-09-22T04:24:33.455Z,93.40
2018-09-22T04:25:33.437Z,93.81
2018-09-22T04:26:33.425Z,93.85
2018-09-22T04:27:33.418Z,94.17
2018-09-22T04:28:33.395Z,94.12
2018-09-22T04:29:33.394Z,94.12
2018-09-22T04:30:33.396Z,94.23
2018-09-22T04:31:33.370Z,93.71
2018-09-22T04:32:33.381Z,93.40
2018-09-22T04:33:33.335Z,93.09
2018-09-22T04:34:33.331Z,93.09
2018-09-22T04:35:33.328Z,93.40
2018-09-22T04:36:33.332Z,92.78
2018-09-22T04:37:33.301Z,93.30
2018-09-22T04:38:33.281Z,93.24
2018-09-22T04:39:33.271Z,93.91
2018-09-22T04:40:33.258Z,93.60
2018-09-22T04:41:33.248Z,92.72
2018-09-22T04:42:33.265Z,92.82
2018-09-22T04:43:33.222Z,93.24
2018-09-22T04:44:33.237Z,93.34
2018-09-22T04:45:33.202Z,93.34
2018-09-22T04:46:33.182Z,93.75
2018-09-22T04:47:33.188Z,94.21
2018-09-22T04:48:33.160Z,94.31
2018-09-22T04:49:33.154Z,94.06
2018-09-22T04:50:33.169Z,94.17
2018-09-22T04:51:33.158Z,94.57
2018-09-22T04:52:33.175Z,94.47
2018-09-22T04:53:33.120Z,94.68
2018-09-22T04:54:33.091Z,94.64
2018-09-22T04:55:33.088Z,94.89
2018-09-22T04:56:33.083Z,94.95
2018-09-22T04:57:33.219Z,94.32
2018-09-22T04:58:33.046Z,93.75
2018-09-22T04:59:33.039Z,93.60
2018-09-22T05:00:33.029Z,93.34
2018-09-22T05:01:33.025Z,93.65
2018-09-22T05:02:33.013Z,93.65
2018-09-22T05:03:33.042Z,93.24
2018-09-22T05:04:32.998Z,93.75
2018-09-22T05:05:32.979Z,93.65
2018-09-22T05:06:32.956Z,94.06
2018-09-22T05:07:32.960Z,93.34
2018-09-22T05:08:32.989Z,93.65
2018-09-22T05:09:32.922Z,94.06
2018-09-22T05:10:32.922Z,93.91
2018-09-22T05:11:32.927Z,94.12
2018-09-22T05:12:32.889Z,94.57
2018-09-22T05:13:32.889Z,94.12
2018-09-22T05:14:32.888Z,94.12
2018-09-22T05:15:32.854Z,95.05
2018-09-22T05:16:32.854Z,94.95
2018-09-22T05:17:32.839Z,95.25
2018-09-22T05:18:32.848Z,94.23
2018-09-22T05:19:32.813Z,93.81
2018-09-22T05:20:32.809Z,94.12
2018-09-22T05:21:32.797Z,93.91
2018-09-22T05:22:32.770Z,93.81
2018-09-22T05:23:32.817Z,93.98
2018-09-22T05:24:32.766Z,93.98
2018-09-22T05:25:32.745Z,93.87
2018-09-22T05:26:32.725Z,93.98
2018-09-22T05:27:32.729Z,94.28
2018-09-22T05:28:32.758Z,94.13
2018-09-22T05:29:32.706Z,94.13
2018-09-22T05:30:32.688Z,94.45
2018-09-22T05:31:32.673Z,94.24
2018-09-22T05:32:32.657Z,93.93
2018-09-22T05:33:32.822Z,93.73
2018-09-22T05:34:32.634Z,93.88
2018-09-22T05:35:32.690Z,92.14
2018-09-22T05:36:32.611Z,91.44
2018-09-22T05:37:32.617Z,89.89
2018-09-22T05:38:32.608Z,90.61
2018-09-22T05:39:32.585Z,90.36
2018-09-22T05:40:32.591Z,90.36
2018-09-22T05:41:32.594Z,90.36
2018-09-22T05:42:32.552Z,90.47
2018-09-22T05:43:32.576Z,88.92
2018-09-22T05:44:32.536Z,88.27
2018-09-22T05:45:32.529Z,88.12
2018-09-22T05:46:32.522Z,88.53
2018-09-22T05:47:32.491Z,88.53
2018-09-22T05:48:32.515Z,89.04
2018-09-22T05:49:32.504Z,89.04
2018-09-22T05:50:32.457Z,88.84
2018-09-22T05:51:32.441Z,88.74
2018-09-22T05:52:32.434Z,88.84
2018-09-22T05:53:32.454Z,88.64
2018-09-22T05:54:32.415Z,89.04
2018-09-22T05:55:32.396Z,89.56
2018-09-22T05:56:32.392Z,90.18
2018-09-22T05:57:32.373Z,90.38
2018-09-22T05:58:32.379Z,89.72
2018-09-22T05:59:32.351Z,89.87
2018-09-22T06:00:32.342Z,89.97
2018-09-22T06:01:32.363Z,89.46
2018-09-22T06:02:32.332Z,89.66
2018-09-22T06:03:32.485Z,89.21
2018-09-22T06:04:32.290Z,90.24
2018-09-22T06:05:32.278Z,89.72
2018-09-22T06:06:32.271Z,90.14
2018-09-22T06:07:32.288Z,90.09
2018-09-22T06:08:32.301Z,89.48
2018-09-22T06:09:32.298Z,89.48
2018-09-22T06:10:32.241Z,89.37
2018-09-22T06:11:32.218Z,89.69
2018-09-22T06:12:32.199Z,89.99
2018-09-22T06:13:32.232Z,89.58
2018-09-22T06:14:32.181Z,90.20
2018-09-22T06:15:32.184Z,87.53
2018-09-22T06:16:32.166Z,87.32
2018-09-22T06:17:32.159Z,89.03
2018-09-22T06:18:32.160Z,89.43
2018-09-22T06:19:32.132Z,89.64
2018-09-22T06:20:32.118Z,90.36
2018-09-22T06:21:32.125Z,89.75
2018-09-22T06:22:32.132Z,89.54
2018-09-22T06:23:32.203Z,89.33
2018-09-22T06:24:32.067Z,90.05
2018-09-22T06:25:32.078Z,89.33
2018-09-22T06:26:32.062Z,87.70
2018-09-22T06:27:32.068Z,86.98
2018-09-22T06:28:32.046Z,88.31
2018-09-22T06:29:32.015Z,88.72
2018-09-22T06:30:32.005Z,89.23
2018-09-22T06:31:31.987Z,88.92
2018-09-22T06:32:31.990Z,89.84
2018-09-22T06:33:31.995Z,89.75
2018-09-22T06:34:31.966Z,88.78
2018-09-22T06:35:31.951Z,88.88
2018-09-22T06:36:31.967Z,88.37
2018-09-22T06:37:32.009Z,84.64
2018-09-22T06:38:31.945Z,84.99
2018-09-22T06:39:31.984Z,87.10
2018-09-22T06:40:31.885Z,85.77
2018-09-22T06:41:31.883Z,83.31
2018-09-22T06:42:31.868Z,82.59
2018-09-22T06:43:31.892Z,83.00
2018-09-22T06:44:31.841Z,81.57
2018-09-22T06:45:31.845Z,81.22
2018-09-22T06:46:31.835Z,81.12
2018-09-22T06:47:31.827Z,80.51
2018-09-22T06:48:31.814Z,83.33
2018-09-22T06:49:31.787Z,82.14
2018-09-22T06:50:31.793Z,84.66
2018-09-22T06:51:31.761Z,84.01
2018-09-22T06:52:31.754Z,83.60
2018-09-22T06:53:31.767Z,83.70
2018-09-22T06:54:31.731Z,84.93
2018-09-22T06:55:31.732Z,81.04
2018-09-22T06:56:31.720Z,82.84
2018-09-22T06:57:31.698Z,84.75
2018-09-22T06:58:31.700Z,82.05
2018-09-22T06:59:31.674Z,78.78
2018-09-22T07:00:31.665Z,78.48
2018-09-22T07:01:31.653Z,81.44
2018-09-22T07:02:31.637Z,82.56
2018-09-22T07:03:31.660Z,82.77
2018-09-22T07:04:31.637Z,81.85
2018-09-22T07:05:31.603Z,81.44
2018-09-22T07:06:31.631Z,80.11
2018-09-22T07:07:31.597Z,80.52
2018-09-22T07:08:31.568Z,80.38
2018-09-22T07:09:31.574Z,79.70
2018-09-22T07:10:31.546Z,75.07
2018-09-22T07:11:31.539Z,74.66
2018-09-22T07:12:31.527Z,75.54
2018-09-22T07:13:31.516Z,74.49
2018-09-22T07:14:31.529Z,73.67
2018-09-22T07:15:31.493Z,72.86
2018-09-22T07:16:31.486Z,73.33
2018-09-22T07:17:31.466Z,74.55
2018-09-22T07:18:31.464Z,75.07
2018-09-22T07:19:31.508Z,74.32
2018-09-22T07:20:31.432Z,70.99
2018-09-22T07:21:31.426Z,68.88
2018-09-22T07:22:31.425Z,71.36
2018-09-22T07:23:31.395Z,70.78
2018-09-22T07:24:31.431Z,70.89
2018-09-22T07:25:31.475Z,72.62
2018-09-22T07:26:31.365Z,70.38
2018-09-22T07:27:31.349Z,69.87
2018-09-22T07:28:31.343Z,69.70
2018-09-22T07:29:31.338Z,68.78
2018-09-22T07:30:31.320Z,70.21
2018-09-22T07:31:31.303Z,69.70
2018-09-22T07:32:31.313Z,72.14
2018-09-22T07:33:31.286Z,70.17
2018-09-22T07:34:31.307Z,70.68
2018-09-22T07:35:31.261Z,69.87
2018-09-22T07:36:31.252Z,68.85
2018-09-22T07:37:31.242Z,67.93
2018-09-22T07:38:31.248Z,71.09
2018-09-22T07:39:31.313Z,68.92
2018-09-22T07:40:31.243Z,69.70
2018-09-22T07:41:31.191Z,71.19
2018-09-22T07:42:31.180Z,71.50
2018-09-22T07:43:31.189Z,68.32
2018-09-22T07:44:31.169Z,65.91
2018-09-22T07:45:31.146Z,66.49
2018-09-22T07:46:31.138Z,67.43
2018-09-22T07:47:31.127Z,69.77
2018-09-22T07:48:31.116Z,65.88
2018-09-22T07:49:31.114Z,65.41
2018-09-22T07:50:31.094Z,65.65
2018-09-22T07:51:31.083Z,66.60
2018-09-22T07:52:31.075Z,65.93
2018-09-22T07:53:31.059Z,60.11
2018-09-22T07:54:31.077Z,64.64
2018-09-22T07:55:31.033Z,62.57
2018-09-22T07:56:31.025Z,62.04
2018-09-22T07:57:31.035Z,60.97
2018-09-22T07:58:31.004Z,59.48
2018-09-22T07:59:31.007Z,59.88
2018-09-22T08:00:31.094Z,59.49
2018-09-22T08:01:30.974Z,58.05
2018-09-22T08:02:30.961Z,57.57
2018-09-22T08:03:30.950Z,58.43
2018-09-22T08:04:30.942Z,56.20
2018-09-22T08:05:30.976Z,59.14
2018-09-22T08:06:30.918Z,55.95
2018-09-22T08:07:30.905Z,58.11
2018-09-22T08:08:30.910Z,58.71
2018-09-22T08:09:30.891Z,58.94
2018-09-22T08:10:30.871Z,59.14
2018-09-22T08:11:30.861Z,60.10
2018-09-22T08:12:30.845Z,58.11
2018-09-22T08:13:30.838Z,57.83
2018-09-22T08:14:30.838Z,59.25
2018-09-22T08:15:30.815Z,59.55
2018-09-22T08:16:30.806Z,60.63
2018-09-22T08:17:30.807Z,57.37
2018-09-22T08:18:30.781Z,59.27
2018-09-22T08:19:30.781Z,55.69
2018-09-22T08:20:30.754Z,55.80
2018-09-22T08:21:30.752Z,55.04
2018-09-22T08:22:30.765Z,54.99
2018-09-22T08:23:30.727Z,54.10
2018-09-22T08:24:30.741Z,55.62
2018-09-22T08:25:30.701Z,53.70
2018-09-22T08:26:30.691Z,53.70
2018-09-22T08:27:30.679Z,53.67
2018-09-22T08:28:30.667Z,52.84
2018-09-22T08:29:30.668Z,51.51
2018-09-22T08:30:30.642Z,52.82
2018-09-22T08:31:30.635Z,53.88
2018-09-22T08:32:30.696Z,53.83
2018-09-22T08:33:30.611Z,55.19
2018-09-22T08:34:30.612Z,54.33
2018-09-22T08:35:30.589Z,54.08
2018-09-22T08:36:30.730Z,53.47
2018-09-22T08:37:30.567Z,53.12
2018-09-22T08:38:30.556Z,52.62
2018-09-22T08:39:30.556Z,53.72
2018-09-22T08:40:30.532Z,52.49
2018-09-22T08:41:30.522Z,55.39
2018-09-22T08:42:30.511Z,51.71
2018-09-22T08:43:30.499Z,50.27
2018-09-22T08:44:30.500Z,51.99
2018-09-22T08:45:30.478Z,51.03
2018-09-22T08:46:30.461Z,50.00
2018-09-22T08:47:30.470Z,49.88
2018-09-22T08:48:30.443Z,48.69
2018-09-22T08:49:30.446Z,50.02
2018-09-22T08:50:30.464Z,51.54
2018-09-22T08:51:30.404Z,49.62
2018-09-22T08:52:30.398Z,50.73
2018-09-22T08:53:30.389Z,52.69
2018-09-22T08:54:30.387Z,55.59
2018-09-22T08:55:30.363Z,55.54
2018-09-22T08:56:30.348Z,55.71
2018-09-22T08:57:30.341Z,52.67
2018-09-22T08:58:30.345Z,50.96
2018-09-22T08:59:30.344Z,50.05
2018-09-22T09:00:30.321Z,51.73
2018-09-22T09:01:30.291Z,52.44
2018-09-22T09:02:30.284Z,53.47
2018-09-22T09:03:30.274Z,53.42
2018-09-22T09:04:30.270Z,54.81
2018-09-22T09:05:30.251Z,51.84
2018-09-22T09:06:30.240Z,50.02
2018-09-22T09:07:30.228Z,51.79
2018-09-22T09:08:30.213Z,52.94
2018-09-22T09:09:30.231Z,52.76
2018-09-22T09:10:30.194Z,54.38
2018-09-22T09:11:30.309Z,54.38
2018-09-22T09:12:30.172Z,52.87
2018-09-22T09:13:30.158Z,54.08
2018-09-22T09:14:30.202Z,54.31
2018-09-22T09:15:30.146Z,57.75
2018-09-22T09:16:30.174Z,57.24
2018-09-22T09:17:30.115Z,55.95
2018-09-22T09:18:30.105Z,56.30
2018-09-22T09:19:30.090Z,53.52
2018-09-22T09:20:30.090Z,53.72
2018-09-22T09:21:30.071Z,55.16
2018-09-22T09:22:30.059Z,55.82
2018-09-22T09:23:30.048Z,55.52
2018-09-22T09:24:30.038Z,56.88
2018-09-22T09:25:30.106Z,55.98
2018-09-22T09:26:30.015Z,55.14
2018-09-22T09:27:30.062Z,54.18
2018-09-22T09:28:29.991Z,55.65
2018-09-22T09:29:29.992Z,55.47
2018-09-22T09:30:29.978Z,54.16
2018-09-22T09:31:29.957Z,55.67
2018-09-22T09:32:29.958Z,57.21
2018-09-22T09:33:29.942Z,54.79
2018-09-22T09:34:29.925Z,56.00
2018-09-22T09:35:29.924Z,55.49
2018-09-22T09:36:29.949Z,55.93
2018-09-22T09:37:29.901Z,58.36
2018-09-22T09:38:29.880Z,55.75
2018-09-22T09:39:29.866Z,58.38
2018-09-22T09:40:29.864Z,56.15
2018-09-22T09:41:29.840Z,55.98
2018-09-22T09:42:29.830Z,56.89
2018-09-22T09:43:29.841Z,58.92
2018-09-22T09:44:29.810Z,57.40
2018-09-22T09:45:29.812Z,57.60
2018-09-22T09:46:29.816Z,58.51
2018-09-22T09:47:29.776Z,57.32
2018-09-22T09:48:29.777Z,58.03
2018-09-22T09:49:29.754Z,56.21
2018-09-22T09:50:29.755Z,56.84
2018-09-22T09:51:29.731Z,58.56
2018-09-22T09:52:29.716Z,59.99
2018-09-22T09:53:29.709Z,58.06
2018-09-22T09:54:29.721Z,57.86
2018-09-22T09:55:29.698Z,59.99
2018-09-22T09:56:29.675Z,59.38
2018-09-22T09:57:29.707Z,58.16
2018-09-22T09:58:29.652Z,59.41
2018-09-22T09:59:29.637Z,58.97
2018-09-22T10:00:29.638Z,57.88
2018-09-22T10:01:29.614Z,57.88
2018-09-22T10:02:29.603Z,59.61
2018-09-22T10:03:29.595Z,60.79
2018-09-22T10:04:29.647Z,60.28
2018-09-22T10:05:29.584Z,58.76
2018-09-22T10:06:29.558Z,58.36
2018-09-22T10:07:29.547Z,61.02
2018-09-22T10:08:29.539Z,59.50
2018-09-22T10:09:29.525Z,61.60
2018-09-22T10:10:29.526Z,57.55
2018-09-22T10:11:29.503Z,58.36
2018-09-22T10:12:29.560Z,61.30
2018-09-22T10:13:29.480Z,57.86
2018-09-22T10:14:29.496Z,57.75
2018-09-22T10:15:29.469Z,58.34
2018-09-22T10:16:29.457Z,57.53
2018-09-22T10:17:29.438Z,57.32
2018-09-22T10:18:29.422Z,59.05
2018-09-22T10:19:29.407Z,59.42
2018-09-22T10:20:29.412Z,56.10
2018-09-22T10:21:29.389Z,56.51
2018-09-22T10:22:29.407Z,56.03
2018-09-22T10:23:29.367Z,57.73
2018-09-22T10:24:29.358Z,57.70
2018-09-22T10:25:29.359Z,57.09
2018-09-22T10:26:29.333Z,56.05
2018-09-22T10:27:29.324Z,56.05
2018-09-22T10:28:29.389Z,55.93
2018-09-22T10:29:29.300Z,56.51
2018-09-22T10:30:29.300Z,56.81
2018-09-22T10:31:29.292Z,54.46
2018-09-22T10:32:29.266Z,58.30
2018-09-22T10:33:29.253Z,51.32
2018-09-22T10:34:29.243Z,52.89
2018-09-22T10:35:29.239Z,53.78
2018-09-22T10:36:29.215Z,55.32
2018-09-22T10:37:29.208Z,55.09
2018-09-22T10:38:29.198Z,53.52
2018-09-22T10:39:29.182Z,54.11
2018-09-22T10:40:29.188Z,56.63
2018-09-22T10:41:29.179Z,53.80
2018-09-22T10:42:29.152Z,53.52
2018-09-22T10:43:29.141Z,53.52
2018-09-22T10:44:29.130Z,53.93
2018-09-22T10:45:29.130Z,55.15
2018-09-22T10:46:29.108Z,54.33
2018-09-22T10:47:29.087Z,54.33
2018-09-22T10:48:29.082Z,57.98
2018-09-22T10:49:29.073Z,59.36
2018-09-22T10:50:29.067Z,54.31
2018-09-22T10:51:29.051Z,54.31
2018-09-22T10:52:29.091Z,54.82
2018-09-22T10:53:29.025Z,53.30
2018-09-22T10:54:29.019Z,53.52
2018-09-22T10:55:29.014Z,55.85
2018-09-22T10:56:28.991Z,53.80
2018-09-22T10:57:28.981Z,52.89
2018-09-22T10:58:28.973Z,53.72
2018-09-22T10:59:28.961Z,56.94
2018-09-22T11:00:28.958Z,52.99
2018-09-22T11:01:28.939Z,56.02
2018-09-22T11:02:28.929Z,53.30
2018-09-22T11:03:29.006Z,53.19
2018-09-22T11:04:28.905Z,53.02
2018-09-22T11:05:28.903Z,52.59
2018-09-22T11:06:28.920Z,51.55
2018-09-22T11:07:28.871Z,52.06
2018-09-22T11:08:28.860Z,51.86
2018-09-22T11:09:28.849Z,52.87
2018-09-22T11:10:28.846Z,53.55
2018-09-22T11:11:28.832Z,52.14
2018-09-22T11:12:28.820Z,53.05
2018-09-22T11:13:28.800Z,52.94
2018-09-22T11:14:28.794Z,54.33
2018-09-22T11:15:28.786Z,50.12
2018-09-22T11:16:28.782Z,51.15
2018-09-22T11:17:28.759Z,51.96
2018-09-22T11:18:28.751Z,50.64
2018-09-22T11:19:28.738Z,51.37
2018-09-22T11:20:28.724Z,52.89
2018-09-22T11:21:28.730Z,51.96
2018-09-22T11:22:28.705Z,52.06
2018-09-22T11:23:28.688Z,51.65
2018-09-22T11:24:28.679Z,52.19
2018-09-22T11:25:28.669Z,51.98
2018-09-22T11:26:28.662Z,52.99
2018-09-22T11:27:28.645Z,52.99
2018-09-22T11:28:28.635Z,51.57
2018-09-22T11:29:28.621Z,55.07
2018-09-22T11:30:28.611Z,52.16
2018-09-22T11:31:28.625Z,51.65
2018-09-22T11:32:28.601Z,51.45
2018-09-22T11:33:28.578Z,51.96
2018-09-22T11:34:28.566Z,51.32
2018-09-22T11:35:28.556Z,51.32
2018-09-22T11:36:31.039Z,51.93
2018-09-22T11:37:28.606Z,51.63
2018-09-22T11:38:28.888Z,50.72
2018-09-22T11:39:29.428Z,48.62
2018-09-22T11:40:29.559Z,49.43
2018-09-22T11:41:30.581Z,49.86
2018-09-22T11:42:28.476Z,51.40
2018-09-22T11:52:43.416Z,52.87
2018-09-22T11:53:43.716Z,51.96
2018-09-22T11:54:43.385Z,51.68
2018-09-22T11:55:42.404Z,51.76
2018-09-22T11:56:42.404Z,53.88
2018-09-22T11:57:42.379Z,51.65
2018-09-22T11:58:49.561Z,48.70
2018-09-22T11:59:42.357Z,49.33
2018-09-22T12:00:42.365Z,48.93
2018-09-22T12:01:44.250Z,50.24
2018-09-22T12:02:42.329Z,49.63
2018-09-22T12:03:42.319Z,50.84
2018-09-22T12:04:42.302Z,51.45
2018-09-22T12:05:42.295Z,49.33
2018-09-22T12:06:42.393Z,49.63
2018-09-22T12:07:43.117Z,50.54
2018-09-22T12:08:42.261Z,49.22
2018-09-22T12:09:42.246Z,51.25
2018-09-22T12:10:43.132Z,49.43
2018-09-22T12:11:42.235Z,50.57
2018-09-22T12:12:42.215Z,50.57
2018-09-22T12:13:42.208Z,50.87
2018-09-22T12:14:42.951Z,50.16
2018-09-22T12:15:42.183Z,50.64
2018-09-22T12:16:42.391Z,49.55
2018-09-22T12:17:42.184Z,49.55
2018-09-22T12:18:42.148Z,49.17
2018-09-22T12:19:42.137Z,50.67
2018-09-22T12:20:42.125Z,50.59
2018-09-22T12:21:42.127Z,49.68
2018-09-22T12:22:42.106Z,48.90
2018-09-22T12:23:42.088Z,49.10
2018-09-22T12:24:42.077Z,50.71
2018-09-22T12:25:42.066Z,52.03
2018-09-22T12:26:44.469Z,51.73
2018-09-22T12:27:42.039Z,50.51
2018-09-22T12:28:42.033Z,51.83
2018-09-22T12:29:42.024Z,49.60
2018-09-22T12:30:42.008Z,50.18
2018-09-22T12:31:42.010Z,50.69
2018-09-22T12:32:41.982Z,48.34
2018-09-22T12:33:41.981Z,49.66
2018-09-22T12:34:41.964Z,48.82
2018-09-22T12:35:41.948Z,47.31
2018-09-22T12:36:41.954Z,49.02
2018-09-22T12:37:41.946Z,48.70
2018-09-22T12:38:41.934Z,47.69
2018-09-22T12:39:42.414Z,48.37
2018-09-22T12:40:42.561Z,48.47
2018-09-22T12:41:41.897Z,47.87
2018-09-22T12:42:43.055Z,48.58
2018-09-22T12:43:42.544Z,48.88
2018-09-22T12:44:41.848Z,48.60
2018-09-22T12:45:42.607Z,49.01
2018-09-22T12:46:41.841Z,49.91
2018-09-22T12:47:43.740Z,49.21
2018-09-22T12:48:41.899Z,49.30
2018-09-22T12:49:41.791Z,48.90
2018-09-22T12:50:41.788Z,50.21
2018-09-22T12:51:41.790Z,48.50
2018-09-22T12:52:41.779Z,49.30
2018-09-22T12:53:41.794Z,48.72
2018-09-22T12:54:41.727Z,50.24
2018-09-22T12:55:41.724Z,47.79
2018-09-22T12:56:41.733Z,49.43
2018-09-22T12:57:41.716Z,50.84
2018-09-22T12:58:41.702Z,49.91
2018-09-22T12:59:41.693Z,50.14
2018-09-22T13:00:41.676Z,49.02
2018-09-22T13:01:41.678Z,49.01
2018-09-22T13:05:56.511Z,48.80
2018-09-22T13:06:56.513Z,51.23
2018-09-22T13:07:56.488Z,50.52
2018-09-22T13:08:56.477Z,48.50
2018-09-22T13:09:56.466Z,46.76
2018-09-22T13:10:56.451Z,47.49
2018-09-22T13:11:56.456Z,47.47
2018-09-22T13:12:56.432Z,48.37
2018-09-22T13:13:56.424Z,49.28
2018-09-22T13:14:56.409Z,46.84
2018-09-22T13:15:56.398Z,48.55
2018-09-22T13:16:56.395Z,47.22
2018-09-22T13:17:56.376Z,46.01
2018-09-22T13:18:56.364Z,45.53
2018-09-22T13:19:56.349Z,46.84
2018-09-22T13:20:56.338Z,48.55
2018-09-22T13:21:56.340Z,46.43
2018-09-22T13:22:56.320Z,44.43
2018-09-22T13:23:56.308Z,44.84
2018-09-22T13:24:56.297Z,45.65
2018-09-22T13:25:56.281Z,49.48
2018-09-22T13:26:56.395Z,48.35
2018-09-22T13:27:56.265Z,47.64
2018-09-22T13:28:56.252Z,45.73
2018-09-22T13:29:56.232Z,48.37
2018-09-22T13:30:56.230Z,48.75
2018-09-22T13:31:56.226Z,47.04
2018-09-22T13:32:56.207Z,45.22
2018-09-22T13:33:56.189Z,47.64
2018-09-22T13:34:56.188Z,46.86
2018-09-22T13:35:56.174Z,46.05
2018-09-22T13:36:56.178Z,48.58
2018-09-22T13:37:56.151Z,45.95
2018-09-22T13:38:56.141Z,45.85
2018-09-22T13:39:56.125Z,45.95
2018-09-22T13:40:56.113Z,47.06
2018-09-22T13:41:56.110Z,48.27
2018-09-22T13:42:56.092Z,45.95
2018-09-22T13:43:56.083Z,46.25
2018-09-22T13:44:56.068Z,46.25
2018-09-22T13:45:56.057Z,47.79
2018-09-22T13:46:56.061Z,45.25
2018-09-22T13:47:56.034Z,47.49
2018-09-22T13:48:56.028Z,47.97
2018-09-22T13:49:56.016Z,45.75
2018-09-22T13:50:56.023Z,46.86
2018-09-22T13:51:55.999Z,46.98
2018-09-22T13:52:55.982Z,49.91
2018-09-22T13:53:55.967Z,49.69
2018-09-22T13:54:55.959Z,47.67
2018-09-22T13:55:55.948Z,47.77
2018-09-22T13:56:55.946Z,46.36
2018-09-22T13:57:55.928Z,47.56
2018-09-22T13:58:55.916Z,46.98
2018-09-22T13:59:55.904Z,47.69
2018-09-22T14:00:55.892Z,48.80
2018-09-22T14:01:55.906Z,48.80
2018-09-22T14:02:55.870Z,48.17
2018-09-22T14:03:55.859Z,49.51
2018-09-22T14:04:55.848Z,49.71
2018-09-22T14:05:55.833Z,48.88
2018-09-22T14:06:55.829Z,48.78
2018-09-22T14:07:55.814Z,48.58
2018-09-22T14:08:55.798Z,49.38
2018-09-22T14:09:55.790Z,49.18
2018-09-22T14:10:55.911Z,47.67
2018-09-22T14:11:55.775Z,48.78
2018-09-22T14:12:55.757Z,47.56
2018-09-22T14:13:55.742Z,47.67
2018-09-22T14:14:55.731Z,50.59
2018-09-22T14:15:55.711Z,51.81
2018-09-22T14:16:55.740Z,51.30
2018-09-22T14:17:55.700Z,48.68
2018-09-22T14:18:55.697Z,47.97
2018-09-22T14:19:55.679Z,47.79
2018-09-22T14:20:55.663Z,48.02
2018-09-22T14:21:55.656Z,47.71
2018-09-22T14:22:55.656Z,48.95
2018-09-22T14:23:55.634Z,48.65
2018-09-22T14:24:55.622Z,49.35
2018-09-22T14:25:55.609Z,49.05
2018-09-22T14:26:55.650Z,48.85
2018-09-22T14:27:55.591Z,50.57
2018-09-22T14:28:55.588Z,49.55
2018-09-22T14:29:55.566Z,50.97
2018-09-22T14:30:55.558Z,51.55
2018-09-22T14:31:55.542Z,50.64
2018-09-22T14:32:55.551Z,49.33
2018-09-22T14:33:55.569Z,49.35
2018-09-22T14:34:55.508Z,51.57
2018-09-22T14:35:55.508Z,50.37
2018-09-22T14:36:55.486Z,52.89
2018-09-22T14:37:55.488Z,50.16
2018-09-22T14:38:55.464Z,49.15
2018-09-22T14:39:55.453Z,50.67
2018-09-22T14:40:55.440Z,49.86
2018-09-22T14:41:55.434Z,50.57
2018-09-22T14:42:55.439Z,49.38
2018-09-22T14:43:55.411Z,50.29
2018-09-22T14:44:55.404Z,51.60
2018-09-22T14:45:55.387Z,51.09
2018-09-22T14:46:55.374Z,52.11
2018-09-22T14:47:55.381Z,50.69
2018-09-22T14:48:55.361Z,51.09
2018-09-22T14:49:55.341Z,50.69
2018-09-22T14:50:55.353Z,50.38
2018-09-22T14:51:55.322Z,50.69
2018-09-22T14:52:55.334Z,51.90
2018-09-22T14:53:55.302Z,51.37
2018-09-22T14:54:55.300Z,52.72
2018-09-22T14:55:55.272Z,51.50
2018-09-22T14:56:55.261Z,51.50
2018-09-22T14:57:55.269Z,51.09
2018-09-22T14:58:55.239Z,51.50
2018-09-22T14:59:55.231Z,51.20
2018-09-22T15:00:55.228Z,50.79
2018-09-22T15:01:55.212Z,50.09
2018-09-22T15:02:55.327Z,51.09
2018-09-22T15:03:55.185Z,50.49
2018-09-22T15:04:55.178Z,51.40
2018-09-22T15:05:55.167Z,51.50
2018-09-22T15:06:55.144Z,52.92
2018-09-22T15:07:55.164Z,54.23
2018-09-22T15:08:55.142Z,52.11
2018-09-22T15:09:55.118Z,52.21
2018-09-22T15:10:55.112Z,50.79
2018-09-22T15:11:55.100Z,50.59
2018-09-22T15:12:55.104Z,51.70
2018-09-22T15:13:55.069Z,51.81
2018-09-22T15:14:55.081Z,50.71
2018-09-22T15:15:55.054Z,51.32
2018-09-22T15:16:55.035Z,51.40
2018-09-22T15:17:55.040Z,51.02
2018-09-22T15:18:55.020Z,51.93
2018-09-22T15:19:55.014Z,53.05
2018-09-22T15:20:54.991Z,52.11
2018-09-22T15:21:54.983Z,51.62
2018-09-22T15:22:54.979Z,51.73
2018-09-22T15:23:55.075Z,51.42
2018-09-22T15:24:54.952Z,51.73
2018-09-22T15:25:54.935Z,51.42
2018-09-22T15:26:54.915Z,52.23
2018-09-22T15:27:54.928Z,52.54
2018-09-22T15:28:54.900Z,52.13
2018-09-22T15:29:54.888Z,51.62
2018-09-22T15:30:54.876Z,52.03
2018-09-22T15:31:54.877Z,52.23
2018-09-22T15:32:54.882Z,53.25
2018-09-22T15:33:54.847Z,52.23
2018-09-22T15:34:54.832Z,51.22
2018-09-22T15:35:54.826Z,52.23
2018-09-22T15:36:54.814Z,52.23
2018-09-22T15:37:54.813Z,52.74
2018-09-22T15:38:54.791Z,52.74
2018-09-22T15:39:54.776Z,51.32
2018-09-22T15:40:54.764Z,51.62
2018-09-22T15:41:54.757Z,52.06
2018-09-22T15:42:54.758Z,53.58
2018-09-22T15:43:54.730Z,51.25
2018-09-22T15:44:54.731Z,52.15
2018-09-22T15:45:54.712Z,52.15
2018-09-22T15:46:54.705Z,52.06
2018-09-22T15:47:54.702Z,53.07
2018-09-22T15:48:54.691Z,53.37
2018-09-22T15:49:54.683Z,51.65
2018-09-22T15:50:54.659Z,51.95
2018-09-22T15:51:54.644Z,51.55
2018-09-22T15:52:54.645Z,52.06
2018-09-22T15:53:54.631Z,52.46
2018-09-22T15:57:39.560Z,52.06
2018-09-22T15:58:41.688Z,52.28
2018-09-22T15:59:39.538Z,52.79
2018-09-22T16:00:39.547Z,53.40
2018-09-22T16:01:41.148Z,54.31
2018-09-22T16:02:40.091Z,54.31
2018-09-22T16:03:39.496Z,53.40
2018-09-22T16:04:39.792Z,53.40
2018-09-22T16:05:39.474Z,53.09
2018-09-22T16:06:39.467Z,53.40
2018-09-22T16:07:39.451Z,53.80
2018-09-22T16:08:39.502Z,53.60
2018-09-22T16:09:39.422Z,54.11
2018-09-22T16:10:39.417Z,54.11
2018-09-22T16:11:39.407Z,53.40
2018-09-22T16:12:39.394Z,54.11
2018-09-22T16:13:39.410Z,52.99
2018-09-22T16:14:39.373Z,53.30
2018-09-22T16:15:39.360Z,53.50
2018-09-22T16:16:39.375Z,53.50
2018-09-22T16:17:39.340Z,52.79
2018-09-22T16:18:39.871Z,53.40
2018-09-22T16:19:39.354Z,53.60
2018-09-22T16:20:39.308Z,52.39
2018-09-22T16:21:39.378Z,52.51
2018-09-22T16:22:40.023Z,52.79
2018-09-22T16:23:39.419Z,53.63
2018-09-22T16:24:39.295Z,53.52
2018-09-22T16:25:39.461Z,54.61
2018-09-22T16:26:39.866Z,53.72
2018-09-22T16:27:39.255Z,53.72
2018-09-22T16:28:39.226Z,54.03
2018-09-22T16:29:39.239Z,55.65
2018-09-22T16:30:39.192Z,54.53
2018-09-22T16:31:39.193Z,56.05
2018-09-22T16:32:39.166Z,56.46
2018-09-22T16:33:39.239Z,56.97
2018-09-22T16:34:39.147Z,56.16
2018-09-22T16:35:39.132Z,55.15
2018-09-22T16:36:39.128Z,55.25
2018-09-22T16:37:40.209Z,54.36
2018-09-22T16:38:39.879Z,55.68
2018-09-22T16:39:39.114Z,55.88
2018-09-22T16:40:39.084Z,55.37
2018-09-22T16:41:40.812Z,55.88
2018-09-22T16:42:39.109Z,55.37
2018-09-22T16:43:40.743Z,56.09
2018-09-22T16:44:39.068Z,57.50
2018-09-22T16:45:39.054Z,56.18
2018-09-22T16:46:39.024Z,55.98
2018-09-22T16:47:39.004Z,56.39
2018-09-22T16:48:39.087Z,57.91
2018-09-22T16:49:39.022Z,59.03
2018-09-22T16:50:39.022Z,56.99
2018-09-22T16:51:38.955Z,56.49
2018-09-22T16:52:38.936Z,58.42
2018-09-22T16:53:38.945Z,57.43
2018-09-22T16:54:38.921Z,57.50
2018-09-22T16:55:41.115Z,57.64
2018-09-22T16:56:38.899Z,57.30
2018-09-22T16:57:38.883Z,58.04
2018-09-22T16:58:38.924Z,58.04
2018-09-22T16:59:40.892Z,57.84
2018-09-22T17:00:38.886Z,57.43
2018-09-22T17:01:38.839Z,57.43
2018-09-22T17:02:38.831Z,59.86
2018-09-22T17:03:39.990Z,60.40
2018-09-22T17:04:38.805Z,61.11
2018-09-22T17:05:38.809Z,61.41
2018-09-22T17:06:38.782Z,63.88
2018-09-22T17:07:38.935Z,66.25